createdAt,value
2019-02-08T00:01:58.930Z,99740.06
2019-02-08T00:04:29.912Z,99744.23
2019-02-08T00:07:00.863Z,99744.56
2019-02-08T00:09:32.061Z,99738.88
2019-02-08T00:12:02.969Z,99737.86
2019-02-08T00:14:34.030Z,99734.69
2019-02-08T00:17:04.921Z,99739.03
2019-02-08T00:19:36.069Z,99743.39
2019-02-08T00:22:08.635Z,99742.83
2019-02-08T00:24:39.717Z,99738.52
2019-02-08T00:27:10.825Z,99733.85
2019-02-08T00:29:41.794Z,99737.88
2019-02-08T00:32:12.793Z,99728.52
2019-02-08T00:34:44.470Z,99729.53
2019-02-08T00:37:15.708Z,99720.18
2019-02-08T00:39:47.186Z,99723.05
2019-02-08T00:42:18.076Z,99714.19
2019-02-08T00:44:49.575Z,99711.70
2019-02-08T00:47:20.460Z,99705.83
2019-02-08T00:49:51.460Z,99708.83
2019-02-08T00:52:22.357Z,99706.77
2019-02-08T00:54:53.353Z,99696.73
2019-02-08T00:57:24.138Z,99699.45
2019-02-08T00:59:55.416Z,99695.45
2019-02-08T01:02:26.303Z,99696.58
2019-02-08T01:04:57.702Z,99701.19
2019-02-08T01:07:28.497Z,99708.16
2019-02-08T01:09:59.480Z,99718.23
2019-02-08T01:12:30.475Z,99726.87
2019-02-08T01:15:01.521Z,99723.89
2019-02-08T01:17:32.568Z,99728.42
2019-02-08T01:20:03.851Z,99730.39
2019-02-08T01:22:34.844Z,99725.75
2019-02-08T01:25:07.660Z,99726.11
2019-02-08T01:27:38.678Z,99741.63
2019-02-08T01:30:12.831Z,99731.73
2019-02-08T01:32:43.833Z,99725.05
2019-02-08T01:35:16.644Z,99730.95
2019-02-08T01:37:48.137Z,99729.08
2019-02-08T01:40:20.769Z,99729.94
2019-02-08T01:42:51.664Z,99729.48
2019-02-08T01:45:24.206Z,99733.81
2019-02-08T01:47:55.485Z,99734.13
2019-02-08T01:50:27.513Z,99729.33
2019-02-08T01:52:58.491Z,99726.80
2019-02-08T01:55:29.680Z,99719.16
2019-02-08T01:58:00.689Z,99722.66
2019-02-08T02:00:35.036Z,99722.66
2019-02-08T02:03:06.974Z,99726.67
2019-02-08T02:05:38.961Z,99726.18
2019-02-08T02:08:10.377Z,99724.00
2019-02-08T02:10:42.905Z,99724.39
2019-02-08T02:13:13.985Z,99716.20
2019-02-08T02:15:45.258Z,99711.88
2019-02-08T02:18:16.348Z,99719.39
2019-02-08T02:20:47.285Z,99721.92
2019-02-08T02:23:18.253Z,99717.58
2019-02-08T02:25:49.715Z,99712.23
2019-02-08T02:28:20.759Z,99711.54
2019-02-08T02:30:51.763Z,99714.91
2019-02-08T02:33:22.725Z,99714.41
2019-02-08T02:35:54.625Z,99712.22
2019-02-08T02:38:25.422Z,99703.70
2019-02-08T02:40:56.416Z,99702.53
2019-02-08T02:43:27.316Z,99698.84
2019-02-08T02:45:58.490Z,99702.83
2019-02-08T02:48:29.485Z,99699.48
2019-02-08T02:51:00.383Z,99705.13
2019-02-08T02:53:31.440Z,99706.77
2019-02-08T02:56:02.549Z,99700.79
2019-02-08T02:58:33.442Z,99698.14
2019-02-08T03:01:05.108Z,99702.00
2019-02-08T03:03:36.037Z,99700.17
2019-02-08T03:06:07.441Z,99699.86
2019-02-08T03:08:39.662Z,99703.96
2019-02-08T03:11:10.781Z,99696.13
2019-02-08T03:13:41.638Z,99692.91
2019-02-08T03:16:12.914Z,99688.48
2019-02-08T03:18:43.739Z,99689.95
2019-02-08T03:21:14.727Z,99695.93
2019-02-08T03:23:45.497Z,99696.77
2019-02-08T03:26:16.502Z,99697.61
2019-02-08T03:28:47.274Z,99695.61
2019-02-08T03:31:18.290Z,99691.27
2019-02-08T03:33:49.168Z,99689.93
2019-02-08T03:36:20.057Z,99690.11
2019-02-08T03:38:50.921Z,99699.38
2019-02-08T03:41:22.721Z,99698.72
2019-02-08T03:43:53.625Z,99690.10
2019-02-08T03:46:24.613Z,99690.70
2019-02-08T03:48:55.399Z,99690.00
2019-02-08T03:51:26.298Z,99683.34
2019-02-08T03:53:57.182Z,99695.66
2019-02-08T03:56:28.071Z,99694.02
2019-02-08T03:58:58.847Z,99684.50
2019-02-08T04:01:29.825Z,99689.05
2019-02-08T04:04:17.122Z,99679.70
2019-02-08T04:06:48.251Z,99684.05
2019-02-08T04:09:19.198Z,99691.48
2019-02-08T04:11:50.305Z,99693.56
2019-02-08T04:14:21.170Z,99696.94
2019-02-08T04:16:52.148Z,99693.98
2019-02-08T04:19:23.041Z,99691.11
2019-02-08T04:21:55.244Z,99692.83
2019-02-08T04:24:29.992Z,99687.30
2019-02-08T04:26:58.694Z,99690.23
2019-02-08T04:29:29.468Z,99689.57
2019-02-08T04:32:00.455Z,99693.10
2019-02-08T04:34:31.356Z,99696.64
2019-02-08T04:37:02.396Z,99688.27
2019-02-08T04:39:33.328Z,99678.63
2019-02-08T04:42:04.406Z,99678.30
2019-02-08T04:44:36.333Z,99677.60
2019-02-08T04:47:07.364Z,99680.17
2019-02-08T04:49:38.824Z,99678.02
2019-02-08T04:52:09.699Z,99683.68
2019-02-08T04:54:40.691Z,99682.33
2019-02-08T04:57:11.716Z,99678.80
2019-02-08T04:59:42.578Z,99678.34
2019-02-08T05:02:13.753Z,99676.34
2019-02-08T05:04:44.653Z,99678.41
2019-02-08T05:07:15.722Z,99674.42
2019-02-08T05:09:46.536Z,99671.93
2019-02-08T05:12:18.324Z,99665.45
2019-02-08T05:14:49.645Z,99662.59
2019-02-08T05:17:20.882Z,99663.66
2019-02-08T05:19:51.809Z,99668.17
2019-02-08T05:22:22.774Z,99677.02
2019-02-08T05:24:53.765Z,99680.36
2019-02-08T05:27:25.725Z,99672.37
2019-02-08T05:29:56.648Z,99671.39
2019-02-08T05:32:27.491Z,99664.72
2019-02-08T05:34:58.539Z,99670.06
2019-02-08T05:37:29.416Z,99671.88
2019-02-08T05:40:00.465Z,99667.31
2019-02-08T05:42:32.469Z,99669.69
2019-02-08T05:45:03.531Z,99675.14
2019-02-08T05:47:34.370Z,99675.28
2019-02-08T05:50:06.569Z,99677.12
2019-02-08T05:52:37.736Z,99674.44
2019-02-08T05:55:11.653Z,99674.23
2019-02-08T05:57:42.601Z,99675.41
2019-02-08T06:00:30.087Z,99676.56
2019-02-08T06:03:01.148Z,99678.63
2019-02-08T06:05:32.178Z,99678.82
2019-02-08T06:08:03.179Z,99680.16
2019-02-08T06:10:34.043Z,99676.52
2019-02-08T06:13:05.863Z,99683.78
2019-02-08T06:15:37.133Z,99681.91
2019-02-08T06:18:08.859Z,99680.16
2019-02-08T06:20:40.279Z,99675.48
2019-02-08T06:23:11.373Z,99683.19
2019-02-08T06:25:42.449Z,99685.66
2019-02-08T06:28:13.435Z,99687.13
2019-02-08T06:30:44.425Z,99683.00
2019-02-08T06:33:15.514Z,99683.68
2019-02-08T06:35:46.406Z,99684.81
2019-02-08T06:38:17.460Z,99683.48
2019-02-08T06:40:48.773Z,99681.97
2019-02-08T06:43:20.398Z,99685.20
2019-02-08T06:45:51.345Z,99681.30
2019-02-08T06:48:22.281Z,99683.38
2019-02-08T06:50:53.164Z,99682.84
2019-02-08T06:53:24.329Z,99686.36
2019-02-08T06:55:55.345Z,99688.52
2019-02-08T06:58:39.609Z,99692.54
2019-02-08T07:01:28.042Z,99695.06
2019-02-08T07:04:30.010Z,99698.25
2019-02-08T07:07:21.735Z,99699.15
2019-02-08T07:10:10.388Z,99701.20
2019-02-08T07:13:00.373Z,99694.52
2019-02-08T07:16:08.807Z,99696.16
2019-02-08T07:18:47.325Z,99699.68
2019-02-08T07:21:55.518Z,99706.69
2019-02-08T07:24:51.086Z,99708.36
2019-02-08T07:27:27.373Z,99707.52
2019-02-08T07:30:10.424Z,99707.83
2019-02-08T07:33:15.611Z,99702.84
2019-02-08T07:36:04.738Z,99713.98
2019-02-08T07:38:41.869Z,99712.47
2019-02-08T07:41:30.671Z,99712.37
2019-02-08T07:44:24.684Z,99715.71
2019-02-08T07:47:28.197Z,99718.55
2019-02-08T07:50:18.348Z,99719.95
2019-02-08T07:53:08.460Z,99715.15
2019-02-08T07:55:48.973Z,99720.13
2019-02-08T07:58:51.164Z,99729.91
2019-02-08T08:01:50.467Z,99718.53
2019-02-08T08:04:43.627Z,99725.38
2019-02-08T08:07:39.860Z,99725.97
2019-02-08T08:10:28.309Z,99723.83
2019-02-08T08:13:27.408Z,99725.48
2019-02-08T08:16:20.055Z,99732.17
2019-02-08T08:19:16.113Z,99728.61
2019-02-08T08:22:06.305Z,99729.53
2019-02-08T08:25:00.153Z,99716.90
2019-02-08T08:27:59.860Z,99714.75
2019-02-08T08:30:58.505Z,99711.77
2019-02-08T08:33:41.375Z,99708.22
2019-02-08T08:36:53.677Z,99707.81
2019-02-08T08:39:57.074Z,99709.45
2019-02-08T08:43:15.631Z,99705.68
2019-02-08T08:46:10.330Z,99698.22
2019-02-08T08:49:11.781Z,99700.52
2019-02-08T08:52:42.421Z,99711.41
2019-02-08T08:55:49.626Z,99699.50
2019-02-08T08:59:11.233Z,99698.56
2019-02-08T09:02:21.398Z,99695.05
2019-02-08T09:05:30.324Z,99690.07
2019-02-08T09:08:34.764Z,99684.64
2019-02-08T09:11:56.689Z,99680.97
2019-02-08T09:14:45.965Z,99680.34
2019-02-08T09:18:12.698Z,99680.09
2019-02-08T09:21:27.016Z,99683.72
2019-02-08T09:24:36.500Z,99689.29
2019-02-08T09:27:49.887Z,99687.68
2019-02-08T09:31:09.516Z,99686.61
2019-02-08T09:34:09.936Z,99686.84
2019-02-08T09:37:18.869Z,99683.52
2019-02-08T09:40:36.808Z,99680.77
2019-02-08T09:43:48.604Z,99677.52
2019-02-08T09:46:46.268Z,99671.52
2019-02-08T09:49:56.327Z,99667.69
2019-02-08T09:53:06.894Z,99660.58
2019-02-08T09:56:23.605Z,99659.03
2019-02-08T09:59:47.280Z,99644.56
2019-02-08T10:02:56.941Z,99644.16
2019-02-08T10:06:14.603Z,99637.70
2019-02-08T10:09:26.471Z,99639.49
2019-02-08T10:12:36.804Z,99633.98
2019-02-08T10:15:42.454Z,99636.11
2019-02-08T10:18:55.498Z,99634.97
2019-02-08T10:22:04.131Z,99632.88
2019-02-08T10:25:17.619Z,99633.72
2019-02-08T10:28:22.609Z,99630.55
2019-02-08T10:31:39.309Z,99624.45
2019-02-08T10:34:46.902Z,99626.98
2019-02-08T10:38:10.478Z,99626.44
2019-02-08T10:41:30.633Z,99624.54
2019-02-08T10:44:49.839Z,99620.41
2019-02-08T10:47:56.217Z,99615.55
2019-02-08T10:51:06.469Z,99613.70
2019-02-08T10:54:06.042Z,99612.84
2019-02-08T10:57:25.862Z,99613.55
2019-02-08T11:00:24.756Z,99608.95
2019-02-08T11:03:42.395Z,99605.66
2019-02-08T11:06:58.598Z,99604.49
2019-02-08T11:10:04.961Z,99598.95
2019-02-08T11:13:12.561Z,99604.74
2019-02-08T11:16:19.030Z,99599.24
2019-02-08T11:19:23.145Z,99590.05
2019-02-08T11:21:57.016Z,99588.44
2019-02-08T11:24:28.515Z,99583.47
2019-02-08T11:27:01.147Z,99572.72
2019-02-08T11:29:32.129Z,99572.09
2019-02-08T11:32:03.102Z,99563.19
2019-02-08T11:34:33.992Z,99561.66
2019-02-08T11:37:05.202Z,99556.48
2019-02-08T11:39:35.992Z,99541.09
2019-02-08T11:42:07.065Z,99538.80
2019-02-08T11:44:37.950Z,99523.69
2019-02-08T11:47:08.942Z,99519.74
2019-02-08T11:49:39.828Z,99519.21
2019-02-08T11:52:10.913Z,99522.42
2019-02-08T11:54:41.810Z,99512.61
2019-02-08T11:57:12.806Z,99504.72
2019-02-08T11:59:43.706Z,99500.79
2019-02-08T12:02:16.084Z,99499.34
2019-02-08T12:04:47.182Z,99500.36
2019-02-08T12:07:18.471Z,99499.81
2019-02-08T12:09:49.314Z,99493.08
2019-02-08T12:12:20.281Z,99492.89
2019-02-08T12:14:51.164Z,99486.06
2019-02-08T12:17:22.140Z,99471.80
2019-02-08T12:19:53.037Z,99469.72
2019-02-08T12:22:24.062Z,99461.31
2019-02-08T12:24:54.840Z,99449.64
2019-02-08T12:27:25.969Z,99445.16
2019-02-08T12:29:57.008Z,99453.31
2019-02-08T12:32:27.979Z,99448.98
2019-02-08T12:34:58.902Z,99451.41
2019-02-08T12:37:29.774Z,99456.80
2019-02-08T12:40:00.649Z,99454.04
2019-02-08T12:42:31.574Z,99446.76
2019-02-08T12:45:02.469Z,99436.77
2019-02-08T12:47:33.450Z,99440.52
2019-02-08T12:50:04.630Z,99434.25
2019-02-08T12:52:35.991Z,99421.44
2019-02-08T12:55:08.341Z,99419.36
2019-02-08T12:57:39.263Z,99419.25
2019-02-08T13:00:14.586Z,99412.85
2019-02-08T13:02:45.734Z,99407.91
2019-02-08T13:05:16.998Z,99406.28
2019-02-08T13:07:48.121Z,99403.08
2019-02-08T13:10:20.858Z,99403.20
2019-02-08T13:12:53.141Z,99394.06
2019-02-08T13:15:25.073Z,99392.94
2019-02-08T13:17:56.230Z,99385.94
2019-02-08T13:20:27.351Z,99389.41
2019-02-08T13:22:58.542Z,99379.12
2019-02-08T13:25:29.442Z,99365.54
2019-02-08T13:28:01.362Z,99374.97
2019-02-08T13:30:32.636Z,99363.79
2019-02-08T13:33:04.758Z,99361.66
2019-02-08T13:35:35.646Z,99357.05
2019-02-08T13:38:06.666Z,99354.06
2019-02-08T13:40:37.528Z,99348.68
2019-02-08T13:43:08.409Z,99346.47
2019-02-08T13:45:39.291Z,99347.27
2019-02-08T13:48:10.283Z,99334.18
2019-02-08T13:50:41.190Z,99331.73
2019-02-08T13:53:12.103Z,99327.77
2019-02-08T13:55:42.965Z,99320.06
2019-02-08T13:58:13.857Z,99315.52
2019-02-08T14:00:44.718Z,99308.61
2019-02-08T14:03:16.073Z,99310.16
2019-02-08T14:05:47.032Z,99315.48
2019-02-08T14:08:18.092Z,99321.38
2019-02-08T14:10:48.991Z,99310.16
2019-02-08T14:13:19.983Z,99307.87
2019-02-08T14:15:50.870Z,99306.48
2019-02-08T14:18:21.771Z,99296.23
2019-02-08T14:20:52.638Z,99287.34
2019-02-08T14:23:23.619Z,99284.94
2019-02-08T14:25:54.624Z,99277.70
2019-02-08T14:28:25.637Z,99274.39
2019-02-08T14:30:56.612Z,99275.19
2019-02-08T14:33:27.592Z,99273.08
2019-02-08T14:35:58.377Z,99271.44
2019-02-08T14:38:29.438Z,99265.32
2019-02-08T14:41:00.266Z,99263.97
2019-02-08T14:43:31.169Z,99271.92
2019-02-08T14:46:01.937Z,99277.72
2019-02-08T14:48:32.918Z,99266.50
2019-02-08T14:51:03.699Z,99264.06
2019-02-08T14:53:34.699Z,99252.39
2019-02-08T14:56:05.690Z,99259.02
2019-02-08T14:58:36.685Z,99253.61
2019-02-08T15:01:07.555Z,99249.61
2019-02-08T15:03:39.096Z,99236.65
2019-02-08T15:06:09.958Z,99229.97
2019-02-08T15:08:41.218Z,99223.52
2019-02-08T15:11:12.143Z,99212.02
2019-02-08T15:13:43.142Z,99210.23
2019-02-08T15:16:14.125Z,99195.39
2019-02-08T15:18:45.389Z,99191.96
2019-02-08T15:21:16.307Z,99182.16
2019-02-08T15:23:47.483Z,99177.16
2019-02-08T15:26:18.551Z,99174.33
2019-02-08T15:28:49.619Z,99168.09
2019-02-08T15:31:20.628Z,99166.45
2019-02-08T15:33:51.996Z,99156.37
2019-02-08T15:36:23.009Z,99152.69
2019-02-08T15:38:54.152Z,99148.88
2019-02-08T15:41:25.187Z,99149.09
2019-02-08T15:43:56.497Z,99156.97
2019-02-08T15:46:27.486Z,99154.09
2019-02-08T15:48:58.479Z,99151.01
2019-02-08T15:51:29.565Z,99157.41
2019-02-08T15:54:00.564Z,99155.33
2019-02-08T15:56:31.736Z,99153.84
2019-02-08T15:59:02.761Z,99154.28
2019-02-08T16:01:33.839Z,99154.63
2019-02-08T16:04:05.783Z,99145.39
2019-02-08T16:06:36.689Z,99138.56
2019-02-08T16:09:12.248Z,99134.92
2019-02-08T16:11:43.275Z,99133.41
2019-02-08T16:14:14.361Z,99132.34
2019-02-08T16:16:45.844Z,99134.80
2019-02-08T16:19:16.832Z,99135.35
2019-02-08T16:21:47.644Z,99127.33
2019-02-08T16:24:18.892Z,99125.37
2019-02-08T16:26:49.910Z,99121.78
2019-02-08T16:29:20.919Z,99117.25
2019-02-08T16:31:51.905Z,99100.22
2019-02-08T16:34:23.596Z,99105.02
2019-02-08T16:36:54.401Z,99100.47
2019-02-08T16:39:25.394Z,99104.02
2019-02-08T16:41:56.259Z,99094.73
2019-02-08T16:44:27.156Z,99088.73
2019-02-08T16:46:58.312Z,99090.51
2019-02-08T16:49:29.531Z,99088.64
2019-02-08T16:52:00.549Z,99085.57
2019-02-08T16:54:31.449Z,99090.41
2019-02-08T16:57:02.301Z,99093.28
2019-02-08T16:59:33.418Z,99093.47
2019-02-08T17:02:04.994Z,99090.34
2019-02-08T17:04:37.173Z,99097.33
2019-02-08T17:07:08.206Z,99093.48
2019-02-08T17:09:39.216Z,99094.27
2019-02-08T17:12:10.096Z,99100.63
2019-02-08T17:14:41.081Z,99104.63
2019-02-08T17:17:11.961Z,99101.33
2019-02-08T17:19:44.053Z,99095.59
2019-02-08T17:22:14.973Z,99102.25
2019-02-08T17:24:45.932Z,99089.80
2019-02-08T17:27:16.849Z,99098.10
2019-02-08T17:29:48.118Z,99091.42
2019-02-08T17:32:19.031Z,99100.22
2019-02-08T17:34:50.516Z,99096.40
2019-02-08T17:37:21.338Z,99094.39
2019-02-08T17:39:52.297Z,99092.16
2019-02-08T17:42:23.597Z,99088.69
2019-02-08T17:44:54.584Z,99089.75
2019-02-08T17:47:25.498Z,99092.09
2019-02-08T17:49:59.129Z,99091.36
2019-02-08T17:52:30.032Z,99100.91
2019-02-08T17:55:00.930Z,99091.48
2019-02-08T17:57:31.792Z,99100.46
2019-02-08T18:00:02.956Z,99095.38
2019-02-08T18:02:35.001Z,99096.22
2019-02-08T18:05:06.817Z,99092.58
2019-02-08T18:07:37.593Z,99096.73
2019-02-08T18:10:10.409Z,99092.40
2019-02-08T18:12:41.232Z,99089.03
2019-02-08T18:15:14.589Z,99090.56
2019-02-08T18:17:45.461Z,99094.42
2019-02-08T18:20:25.712Z,99101.05
2019-02-08T18:22:56.647Z,99093.09
2019-02-08T18:25:27.938Z,99086.33
2019-02-08T18:27:58.944Z,99091.81
2019-02-08T18:30:30.022Z,99088.84
2019-02-08T18:33:00.906Z,99080.94
2019-02-08T18:35:32.098Z,99080.88
2019-02-08T18:38:03.022Z,99067.42
2019-02-08T18:40:33.987Z,99077.91
2019-02-08T18:43:04.969Z,99072.04
2019-02-08T18:45:36.074Z,99068.67
2019-02-08T18:48:07.272Z,99069.36
2019-02-08T18:50:40.518Z,99062.50
2019-02-08T18:53:11.401Z,99061.11
2019-02-08T18:55:44.333Z,99060.96
2019-02-08T18:58:19.103Z,99058.29
2019-02-08T19:00:49.191Z,99053.45
2019-02-08T19:03:20.278Z,99044.30
2019-02-08T19:05:51.160Z,99046.62
2019-02-08T19:08:22.137Z,99048.84
2019-02-08T19:10:53.164Z,99041.69
2019-02-08T19:13:23.934Z,99056.02
2019-02-08T19:15:55.086Z,99048.95
2019-02-08T19:18:25.914Z,99048.59
2019-02-08T19:20:56.820Z,99042.47
2019-02-08T19:23:27.682Z,99037.83
2019-02-08T19:25:58.644Z,99029.12
2019-02-08T19:28:29.462Z,99027.00
2019-02-08T19:31:00.750Z,99023.25
2019-02-08T19:33:31.644Z,99015.79
2019-02-08T19:36:02.616Z,99017.77
2019-02-08T19:38:33.153Z,99028.08
2019-02-08T19:41:04.103Z,99020.56
2019-02-08T19:43:34.784Z,99023.78
2019-02-08T19:46:06.180Z,99015.58
2019-02-08T19:48:37.074Z,99012.37
2019-02-08T19:51:07.948Z,99010.89
2019-02-08T19:53:38.726Z,99008.61
2019-02-08T19:56:09.724Z,98997.11
2019-02-08T19:58:40.621Z,98994.88
2019-02-08T20:01:11.904Z,98990.88
2019-02-08T20:03:42.892Z,98986.58
2019-02-08T20:06:14.005Z,98986.44
2019-02-08T20:08:44.940Z,98987.81
2019-02-08T20:11:15.810Z,98991.37
2019-02-08T20:13:46.786Z,98985.64
2019-02-08T20:16:17.891Z,98989.19
2019-02-08T20:18:48.891Z,98988.55
2019-02-08T20:21:19.681Z,98981.56
2019-02-08T20:23:50.573Z,98975.93
2019-02-08T20:26:27.495Z,98964.97
2019-02-08T20:28:58.496Z,98965.09
2019-02-08T20:31:30.551Z,98970.00
2019-02-08T20:34:01.654Z,98969.91
2019-02-08T20:36:32.570Z,98965.45
2019-02-08T20:39:07.121Z,98972.76
2019-02-08T20:41:39.789Z,98967.95
2019-02-08T20:44:10.858Z,98967.17
2019-02-08T20:46:41.748Z,98956.01
2019-02-08T20:49:12.738Z,98968.81
2019-02-08T20:51:43.645Z,98959.36
2019-02-08T20:54:14.716Z,98959.95
2019-02-08T20:56:45.608Z,98954.31
2019-02-08T20:59:19.955Z,98950.89
2019-02-08T21:01:51.147Z,98958.00
2019-02-08T21:04:23.502Z,98961.47
2019-02-08T21:06:58.563Z,98956.09
2019-02-08T21:09:31.308Z,98954.08
2019-02-08T21:12:04.212Z,98946.27
2019-02-08T21:14:40.238Z,98941.08
2019-02-08T21:17:11.069Z,98941.92
2019-02-08T21:19:41.961Z,98940.28
2019-02-08T21:22:17.595Z,98944.09
2019-02-08T21:24:48.831Z,98945.92
2019-02-08T21:27:24.085Z,98949.27
2019-02-08T21:29:54.882Z,98947.71
2019-02-08T21:32:26.650Z,98945.23
2019-02-08T21:38:49.871Z,98933.06
2019-02-08T21:50:06.438Z,98960.89
2019-02-08T21:56:07.772Z,98978.77
2019-02-08T21:58:38.673Z,98988.27
2019-02-08T22:01:09.849Z,98989.19
2019-02-08T22:03:40.733Z,98984.25
2019-02-08T22:06:12.521Z,98983.20
2019-02-08T22:08:43.339Z,98985.17
2019-02-08T22:11:14.325Z,98980.27
2019-02-08T22:13:45.229Z,98979.56
2019-02-08T22:16:16.321Z,98984.55
2019-02-08T22:18:48.233Z,98989.55
2019-02-08T22:21:19.118Z,98987.73
2019-02-08T22:23:49.794Z,98975.33
2019-02-08T22:26:20.963Z,98967.49
2019-02-08T22:28:51.865Z,98969.70
2019-02-08T22:31:22.822Z,98975.66
2019-02-08T22:33:54.695Z,98984.79
2019-02-08T22:36:25.623Z,98973.03
2019-02-08T22:38:56.560Z,98963.47
2019-02-08T22:41:27.924Z,98950.58
2019-02-08T22:43:58.845Z,98945.94
2019-02-08T22:46:31.190Z,98946.00
2019-02-08T22:49:02.290Z,98942.22
2019-02-08T22:51:33.082Z,98948.58
2019-02-08T22:54:04.216Z,98951.64
2019-02-08T22:56:35.129Z,98946.94
2019-02-08T22:59:06.114Z,98932.56
2019-02-08T23:01:41.293Z,98934.06
2019-02-08T23:04:12.488Z,98926.37
2019-02-08T23:06:45.151Z,98915.41
2019-02-08T23:09:21.024Z,98915.71
2019-02-08T23:11:51.988Z,98904.80
2019-02-08T23:14:22.989Z,98903.46
2019-02-08T23:16:53.985Z,98898.82
2019-02-08T23:19:24.886Z,98898.18
2019-02-08T23:21:56.686Z,98896.63
2019-02-08T23:24:27.565Z,98883.88
2019-02-08T23:26:58.568Z,98887.59
2019-02-08T23:29:30.526Z,98887.09
2019-02-08T23:32:01.485Z,98881.76
2019-02-08T23:34:32.365Z,98880.84
2019-02-08T23:37:03.261Z,98883.73
2019-02-08T23:39:34.022Z,98881.99
2019-02-08T23:42:05.008Z,98876.65
2019-02-08T23:44:35.892Z,98884.38
2019-02-08T23:47:07.092Z,98877.52
2019-02-08T23:49:37.788Z,98873.20
2019-02-08T23:52:08.782Z,98878.02
2019-02-08T23:54:39.321Z,98883.48
2019-02-08T23:57:10.129Z,98875.06
2019-02-08T23:59:40.917Z,98884.41
